Terminal Aerodrome Forecast
Issued by NWS

Home | Current Version | Previous Version | Text Only | Print | Product List | Glossary On
Versions: 1 2 3 4 5 6 7 8 9 10 11 12 13 14 15 16 17
000
FTUS41 KPHI 281727
TAFPNE
TAF
KPNE 281727Z 2818/2918 13010KT P6SM BKN045
     FM282300 11008KT P6SM SCT010 BKN040
      TEMPO 2900/2903 BKN010 OVC035
     FM290300 09008KT 4SM -SHRA BR OVC005
     FM290700 09006KT 2SM -SHRA BR OVC003
     FM291200 06006KT 4SM BR OVC006=

USA.gov is the U.S. government's official web portal to all federal, state and local government web resources and services.